Woodhouse Moor parkrun # 550 - 24/02/2018

PosparkrunnerTimeAge CatAge GradeGender PosClubNoteTotal Runs
1Matthew JOHN16:50VM35-3978.32 %M1PB stays at 00:15:4026
2Mika BROWN17:01SM20-2475.81 %M2Leeds & Bradford Triathlon ClubPB stays at 00:16:4514
3Daniel JOSEPHS17:12SM25-2975.10 %M3South Shields Harriers and ACFirst Timer!48
4Andy DEAN17:27VM40-4480.04 %M4Dewsbury Road RunnersNew PB!35Strava logo
5Matthew AKPAN17:27SM25-2974.02 %M5PB stays at 00:16:39286Member of the parkrun 250 Club
6Peter FRANCIS17:32SM30-3473.76 %M6Leeds Metropolitan University ACPB stays at 00:16:5317
7Benjamin LIDGARD18:06SM20-2471.27 %M7New PB!6
8James TARRAN18:08VM50-5481.99 %M8Valley Striders ACPB stays at 00:17:41326Member of the parkrun 250 ClubStrava logo
9Unknown
10Jake Anthony BIRKBY18:14SM25-2970.75 %M10PB stays at 00:17:5256Member of the parkrun 50 Club
11Sam AKERMAN18:20JM15-1775.91 %M11Skyrac ACPB stays at 00:18:0829Member of the parkrun 10 Club
12Gwilym THOMAS18:35VM40-4474.53 %M12Valley Striders ACPB stays at 00:16:44171Member of the parkrun 100 Club
13Martin Robert LANDELLS18:47VM55-5983.23 %M13Pudsey & Bramley ACPB stays at 00:17:4320
14Tobias ADKINS18:51SM25-2968.44 %M14Hyde Park HarriersNew PB!65Member of the parkrun 50 Club
15Jake HINDMARCH19:03SM18-1969.20 %M15Derby ACPB stays at 00:18:2122
16Aiden HEAP19:12SM20-2467.19 %M16First Timer!1
17Zejun YAO19:18VM35-3968.31 %M17Leeds University Cross Country ClubPB stays at 00:19:0516Strava logo
18Kelvin DICKINSON19:25VM45-4973.56 %M18Wirral ACFirst Timer!108Member of the parkrun 100 Club
19Unknown
20Rory Anthony GOLDTHORPE19:35VM35-3968.68 %M20PB stays at 00:19:14145Member of the parkrun 100 Club
21Unknown
22Keisuke KOYAMA19:46SM20-2465.51 %M22New PB!5
23Jenson BROGDEN19:48JM11-1473.23 %M23Otley ACFirst Timer!26Member of the parkrun 10 Club
24John Paul STUTTARD19:49VM40-4470.98 %M24Crossgates Harriers ACPB stays at 00:18:4969Member of the parkrun 50 Club
25Paul SAWYER19:55SM30-3465.86 %M25Hyde Park HarriersPB stays at 00:19:25103Member of the parkrun 100 Club
26Freddie RODEN19:58JM11-1474.46 %M26Abbey Runners LeedsNew PB!153Member of the parkrun 100 Club
27Unknown
28Unknown
29Roy HUGGINS20:23VM55-5975.39 %M29Valley Striders ACPB stays at 00:17:49417Member of the parkrun 250 Club
30Joe BUTLER20:25SM20-2463.43 %M30Roundhay RunnersNew PB!140Member of the parkrun 100 ClubStrava logo
31Thomas GATEHOUSE20:26SM30-3463.30 %M31PB stays at 00:19:23272Member of the parkrun 250 Club
32Joseph PARTRIDGE20:27SM25-2963.16 %M32First Timer!2Strava logo
33Joe HUDSON20:28SM20-2463.03 %M33New PB!4
34Ian ROSSER20:30VM45-4970.81 %M34Valley Striders ACPB stays at 00:17:57222Member of the parkrun 100 Club
35Unknown
36Dominic O'KEY20:32SM25-2962.82 %M36PB stays at 00:20:1654Member of the parkrun 50 Club
37Simon BROWN20:38VM35-3965.19 %M37Wimbledon WindmilersFirst Timer!26
38Kelsey ERICKSON20:38SW30-3471.81 %F1PB stays at 00:20:0817
39David Thomas ROGERSON20:39VM35-3965.62 %M38PB stays at 00:20:1529Strava logo
40Daniel TURNER20:40SM20-2462.66 %M39New PB!124Member of the parkrun 100 Club
41Nick BAINES20:42VM35-3965.46 %M40PB stays at 00:19:5060Member of the parkrun 50 ClubStrava logo
42Unknown
43John-Paul ASHTON20:46VM35-3965.25 %M42Leeds & Bradford Triathlon ClubPB stays at 00:20:0751Member of the parkrun 50 Club
44Unknown
45Stephen ZWOLINSKY20:49VM35-3964.13 %M44PB stays at 00:20:0419
46Carl STIMPSON20:57SM20-2461.81 %M45PB stays at 00:20:1611
47Reuben LINDSAY21:01SM18-1962.73 %M46PB stays at 00:19:3339Member of the parkrun 10 Club
48Tom HAWTHORN21:02SM25-2961.33 %M47PB stays at 00:19:277
49Nick PAYNE21:03SM30-3462.31 %M48Hyde Park HarriersPB stays at 00:19:2628Strava logo
50Curtis BROADHEAD21:09SM20-2461.23 %M49PB stays at 00:20:3710
51Bobak WALKER21:17VM35-3962.33 %M50Roundhay RunnersPB stays at 00:18:41144Member of the parkrun 100 ClubStrava logo
52Adrian DAVIES21:27SM20-2460.14 %M51Thames Turbo TriathlonPB stays at 00:19:1684Member of the parkrun 50 ClubStrava logo
53Jonathan SMITH21:29SM25-2960.12 %M52PB stays at 00:21:065
54Rachel BENTLEY21:30SW25-2968.84 %F2Durham City Harriers ACNew PB!137Member of the parkrun 100 Club
55Tony HOLMES21:31VM50-5468.55 %M53Purbeck RunnersFirst Timer!73Member of the parkrun 50 Club
56Andy WHEELER21:31VM45-4966.38 %M54Leeds & Bradford Triathlon ClubNew PB!5
57Michael MCARDLE21:36SM25-2959.72 %M55First Timer!1
58Steven ABBOTT21:40VM55-5972.15 %M56Crossgates Harriers ACNew PB!22
59Cian LOWNEY21:43SM30-3459.55 %M57New PB!2Strava logo
60Chris JONES21:46VM60-6474.35 %M58Hyde Park HarriersPB stays at 00:19:02443Member of the parkrun 250 Club
61Mark AYRE21:49VM50-5467.61 %M59Roundhay RunnersPB stays at 00:20:2535
62Philip KOK SHUN21:50SM20-2459.08 %M60PB stays at 00:21:1844
63James BYE21:51VM35-3960.72 %M61Abbey Runners LeedsPB stays at 00:19:0847
64Mark HADDRILL21:55VM35-3960.15 %M62Hyde Park HarriersPB stays at 00:20:20149Member of the parkrun 100 ClubStrava logo
65Jack TOBIN21:57SM20-2458.77 %M63PB stays at 00:21:314Strava logo
66Mark SEED21:58VM50-5467.15 %M64Salford Harriers and ACPB stays at 00:19:4781Member of the parkrun 50 Club
67Thomas MATTHEWS22:00SM20-2458.86 %M65First Timer!1
68Helen RODEN22:03VW45-4972.03 %F3Abbey Runners LeedsPB stays at 00:21:18164Member of the parkrun 100 Club
69Michael HALL22:05VM35-3959.70 %M66Valley Striders ACPB stays at 00:19:19184Member of the parkrun 100 ClubStrava logo
70Paul TAPPER22:07VM45-4964.58 %M67PB stays at 00:21:1936
71Gavin BELL22:10SM30-3458.35 %M68New PB!2
72Anna SKINNER22:11SW20-2466.72 %F4Bristol and West ACNew PB!12
73Finn WHITTAKER22:14SM18-1959.97 %M69First Timer!13Member of the parkrun 10 ClubStrava logo
74Nichola MORELAND22:15SW25-2966.52 %F5Hyde Park HarriersPB stays at 00:22:0425Strava logo
75Alpheas SITHOLE22:21VM45-4963.46 %M70PB stays at 00:21:1795Member of the parkrun 50 Club
76Caroline HALL22:24VW45-4973.07 %F6Wirral ACFirst Timer!107Member of the parkrun 100 Club
77Chris CUNLIFFE22:24VM50-5465.85 %M71PB stays at 00:19:53107Member of the parkrun 100 ClubStrava logo
78Michael MCDERMOTT22:25VM50-5466.32 %M72PB stays at 00:22:1379Member of the parkrun 50 Club
79Stuart LOWE22:27VM35-3959.91 %M73PB stays at 00:20:36157Member of the parkrun 100 Club
80Dan DONNELLY22:33VM50-5465.93 %M74Hyde Park HarriersPB stays at 00:19:3494Member of the parkrun 50 Club
81Kirsty RYAN22:34SW25-2965.58 %F7Roundhay RunnersNew PB!7
82Unknown
83Gordon CRAWFORD22:35VM65-6974.24 %M76Hyde Park HarriersPB stays at 00:20:28136Member of the parkrun 100 Club
84Conor GOOLD22:37SM25-2957.04 %M77First Timer!1
85Ai Lyn TAN22:38VW45-4971.58 %F8UKRunChat Running ClubPB stays at 00:21:23258Member of the parkrun 250 ClubStrava logo
86Stephen MAHON22:45SM30-3457.36 %M78First Timer!20
87James LJUSTINA22:45SM25-2956.70 %M79First Timer!2
88Sarah SWALES22:46SW25-2965.01 %F9First Timer!25
89Lucia STONEY22:46JW11-1473.06 %F10Leeds & Bradford Triathlon ClubFirst Timer!8
90Jim SYKES22:47SM25-2956.62 %M80New PB!15
91Nik RUTHERFORD22:52SM25-2956.49 %M81PB stays at 00:22:2717
92Fraser LUCKHURST22:59SM18-1958.01 %M82First Timer!2
93Benjamin JACOBS23:00SM25-2956.09 %M83PB stays at 00:21:5572Member of the parkrun 50 Club
94Rowan TEMPLE23:02SM30-3456.15 %M84Kirkstall HarriersPB stays at 00:19:0836Strava logo
95Rob WEBSTER23:03VM45-4963.49 %M85Horsforth HarriersPB stays at 00:22:23192Member of the parkrun 100 Club
96Nicholas AKERMAN23:04VM40-4460.55 %M86PB stays at 00:21:1133
97Andy BISSET23:05VM45-4961.88 %M87Horsforth HarriersPB stays at 00:22:0963Member of the parkrun 50 Club
98Lucy RIDER23:07VW35-3965.10 %F11Hyde Park HarriersPB stays at 00:22:12135Member of the parkrun 100 ClubStrava logo
99John PRATT23:09VM35-3956.95 %M88New PB!2Strava logo
100Unknown
101Clare EVANS23:14SW25-2963.70 %F12Hyde Park HarriersPB stays at 00:21:53143Member of the parkrun 100 ClubStrava logo
102Unknown
103Will HALLYBONE23:18SM25-2955.44 %M91PB stays at 00:21:3619Strava logo
104Qingxu DOU23:20VM45-4962.21 %M92PB stays at 00:20:22222Member of the parkrun 100 Club
105Scott TAYLOR23:27SM20-2455.22 %M93First Timer!1
106Laura O DONNELL23:27SW25-2963.11 %F13PB stays at 00:22:1914
107Anna HAY23:28SW25-2963.07 %F14PB stays at 00:20:1014
108Chloé GILBERT23:28SW20-2463.07 %F15PB stays at 00:22:5413
109Rebecca WALSH23:29SW20-2463.02 %F16New PB!8
110Unknown
111Clive WALTON23:30VM50-5462.77 %M95Abbey Runners LeedsPB stays at 00:21:56158Member of the parkrun 100 ClubStrava logo
112Antonio Angel PEREZ LOPEZ23:30VM40-4459.43 %M96PB stays at 00:18:2679Member of the parkrun 50 Club
113Lucia LOPEZ23:31VW35-3963.57 %F17PB stays at 00:23:1088Member of the parkrun 50 Club
114Joseph SIMPSON23:32SM20-2455.03 %M97York Triathlon ClubNew PB!13
115Bartley FOULKES23:33VM60-6469.29 %M98Horsforth HarriersPB stays at 00:22:2442
116Joseph THOMPSON23:35SM20-2454.70 %M99PB stays at 00:22:0414
117Kerry PLAYLE23:38SW30-3462.76 %F18PB stays at 00:22:3929
118Chris CARRICK23:39VM40-4457.72 %M100Hyde Park HarriersPB stays at 00:21:16150Member of the parkrun 100 ClubStrava logo
119Sean LOOBY23:42VM35-3955.63 %M101First Timer!26
120Unknown
121Aoife DAVENPORT23:43SW18-1962.61 %F19PB stays at 00:22:284
122Eleanor GALLON23:44VW35-3963.41 %F20Kirkstall HarriersPB stays at 00:21:5688Member of the parkrun 50 Club
123Kevin KARIKARI23:45SM25-2954.32 %M103First Timer!4
124James COX23:46SM20-2454.28 %M104New PB!21Strava logo
125Jonathan TURNER23:46VM45-4961.57 %M105PB stays at 00:23:44116Member of the parkrun 100 Club
126Rob GRAY23:47VM50-5462.02 %M106PB stays at 00:22:2562Member of the parkrun 50 Club
127Nicola SUNDERLAND23:54SW30-3461.99 %F21PB stays at 00:23:0547
128Elen BAUGH23:59SW20-2461.71 %F22Denbigh HarriersNew PB!91Member of the parkrun 50 Club
129Andrew FURBER24:00VM50-5461.94 %M107PB stays at 00:22:2252Member of the parkrun 50 ClubStrava logo
130Brian DOWLING24:03SM30-3454.26 %M108First Timer!24
131Claire LOZIER24:06VW35-3962.79 %F23PB stays at 00:24:065
132Panos FERENTINOS24:08SM30-3454.35 %M109PB stays at 00:22:2519Strava logo
133Alex WILLCOCKS24:09VM35-3954.93 %M110PB stays at 00:23:2725Strava logo
134Tom WELLS24:12SM30-3453.93 %M111New PB!3
135Emma Jane RADCLIFFE24:13SW25-2961.11 %F24Leeds University Cross Country ClubPB stays at 00:21:4713
136Simon MCGRATH24:14SM30-3453.51 %M112Hyde Park HarriersPB stays at 00:19:25110Member of the parkrun 100 ClubStrava logo
137Will WEATHERILL24:16VM40-4456.25 %M113First Timer!1
138Edward NOWELL24:17SM25-2953.12 %M114New PB!8
139Sam LANES24:19SM30-3453.67 %M115PB stays at 00:23:2415
140Alex WHEWELL24:19VM35-3954.90 %M116PB stays at 00:23:3759Member of the parkrun 50 Club
141Alexandra Louise WATSON-USHER24:20SW30-3461.10 %F25Valley Striders ACPB stays at 00:21:44181Member of the parkrun 100 Club
142Ally LONG24:20VM35-3955.68 %M117PB stays at 00:23:0848
143Unknown
144Ed GREENHOUGH24:27SM25-2952.76 %M119First Timer!13
145Grace HOLDEN24:29SW20-2460.45 %F26Bolton United Harriers & ACPB stays at 00:23:4288Member of the parkrun 50 Club
146Lola BARLOW24:31SW20-2460.37 %F27New PB!5Strava logo
147Mark DEEGAN24:33SM20-2452.55 %M120Hyde Park HarriersNew PB!2
148Oliver CURRIE24:43SM30-3453.07 %M121First Timer!1
149Harry PUJARA24:43SM25-2952.19 %M122PB stays at 00:23:448
150Maika OHNO24:44VW40-4463.61 %F28Hyde Park HarriersPB stays at 00:23:3689Member of the parkrun 50 Club
151Ben MEYER24:45VM35-3953.27 %M123New PB!13Strava logo
152Zachary QUIN24:46JM11-1460.03 %M124Otley ACFirst Timer!4
153Simon QUIN24:47VM45-4957.23 %M125Otley ACFirst Timer!5Strava logo
154Phil KELLY24:52VM55-5963.40 %M126New PB!14
155Ruth HANCOX24:52SW30-3459.52 %F29Hyde Park HarriersPB stays at 00:22:4754Member of the parkrun 50 Club
156Michael DEAN24:53VM55-5963.90 %M127New PB!133Member of the parkrun 100 Club
157Jane ELLIS24:54SW25-2959.44 %F30PB stays at 00:24:37208Member of the parkrun 100 Club
158Unknown
159Zoe KNELL-MOORE25:01VW40-4461.49 %F31Leeds & Bradford Triathlon ClubPB stays at 00:23:4062Member of the parkrun 50 ClubStrava logo
160Noel AKERS25:10VM60-6464.30 %M129Kirkstall HarriersPB stays at 00:21:34199Member of the parkrun 100 Club
161Unknown
162Sarah CULKIN25:15VW35-3959.21 %F32Abbey Runners LeedsNew PB!3
163Frank JONES25:17VM55-5961.31 %M131PB stays at 00:22:53202Member of the parkrun 100 ClubStrava logo
164Jack BOZSON25:18SM20-2450.99 %M132New PB!2
165Lesley SUNDERLAND25:19VW55-5970.57 %F33Leeds & Bradford Triathlon ClubPB stays at 00:24:539
166Andy WOOD25:20VM55-5962.24 %M133PB stays at 00:23:2051Member of the parkrun 50 Club
167Rafet ONGUN25:21SM30-3451.15 %M134Hyde Park HarriersPB stays at 00:24:4441Strava logo
168Craig WALLBANK25:22SM25-2950.92 %M135PB stays at 00:23:2748
169Helen SCOTT25:24VW50-5466.80 %F34PB stays at 00:23:51107Member of the parkrun 100 Club
170Steve WOOD25:26VM65-6965.92 %M136Horsforth HarriersPB stays at 00:21:05294Member of the parkrun 250 Club
171Matt REES25:32SM25-2950.52 %M137PB stays at 00:23:0816Strava logo
172Anna JONES25:33SW20-2457.93 %F35New PB!13
173Unknown
174Natalie WOOD25:33VW35-3958.71 %F36Horsforth HarriersPB stays at 00:24:2771Member of the parkrun 50 Club
175Unknown
176Cara SASS25:35SW30-3457.85 %F37Hyde Park HarriersPB stays at 00:23:5520Strava logo
177Pirjo JOHNSON25:36VW55-5969.79 %F38Barton & District ACPB stays at 00:24:5622
178Adam SKELTON25:37VM35-3951.46 %M140PB stays at 00:23:5917Strava logo
179Stu SKLINAR25:37SM30-3450.62 %M141Leeds & Bradford Triathlon ClubPB stays at 00:21:2463Member of the parkrun 50 Club
180Unknown
181Jenna SUTHERLAND25:39SW20-2457.70 %F39New PB!5
182Graham CALLALY25:41VM65-6965.28 %M143First Timer!18
183Noah PHILPOTT25:43JM15-1754.12 %M144Wrangthorn Church RunnersPB stays at 00:22:58207Member of the parkrun 100 Club
184Becky BROOKS25:43SW18-1957.74 %F40PB stays at 00:24:5212
185Anna WEEKS25:47SW30-3457.47 %F41Abbey Runners LeedsNew PB!15
186Unknown
187Robert FLINT25:52VM40-4454.38 %M146PB stays at 00:22:19114Member of the parkrun 100 Club
188Anna BOAKE25:54SW18-1957.34 %F42University of Leeds ACNew PB!13
189Stephen FLOOD25:57SM25-2949.78 %M147PB stays at 00:24:1329
190Unknown
191Helen LODGE25:59VW45-4963.76 %F43Southport Waterloo ACFirst Timer!29Strava logo
192Xin XIAO25:59SM30-3450.48 %M149PB stays at 00:23:4219
193Rhiannon DAVIES26:00SW25-2956.92 %F44Abbey Runners LeedsNew PB!7
194Stephanie MATU26:00SW20-2456.92 %F45Leeds & Bradford Triathlon ClubNew PB!128Member of the parkrun 100 ClubStrava logo
195Matt SYKES-HOOBAN26:04VM35-3951.98 %M150Kirkstall HarriersPB stays at 00:22:5281Member of the parkrun 50 Club
196Joanne MCGAREY26:06SW25-2956.70 %F46Kirkstall HarriersFirst Timer!9Strava logo
197Dean FRANCIS26:07VM50-5458.33 %M151New PB!11
198Jaz SINGH26:09VM45-4955.96 %M152PB stays at 00:25:45144Member of the parkrun 100 Club
199Unknown
200Laura EDWARDS26:12SW30-3456.55 %F47Hyde Park HarriersNew PB!123Member of the parkrun 100 Club
201Paul GREENE26:13VM55-5960.14 %M154PB stays at 00:24:1911
202Unknown
203Seema RANI26:15VW35-3957.90 %F48NANew PB!235Member of the parkrun 100 Club
204Coral MAJOR26:15SW25-2956.38 %F49PB stays at 00:22:5399Member of the parkrun 50 Club
205Ian BRINE26:19VM45-4954.27 %M156Rothwell & District HarriersPB stays at 00:22:5113
206Jim ROWLAND26:22VM70-7466.88 %M157Wrangthorn Church RunnersPB stays at 00:23:22171Member of the parkrun 100 Club
207Dominic ODDY26:23SM25-2948.96 %M158PB stays at 00:26:177
208Alice MURPHY26:24SW20-2456.06 %F50PB stays at 00:25:324
209Thomas KEAR26:26JM15-1752.65 %M159PB stays at 00:23:3922Member of the parkrun 10 Club
210Ruth NORMAN26:29SW25-2955.88 %F51Hyde Park HarriersPB stays at 00:24:0133
211Amy SMALL26:34VW35-3957.21 %F52PB stays at 00:24:42105Member of the parkrun 100 Club
212Chris TATHAM26:38VM50-5455.82 %M160PB stays at 00:24:49100Member of the parkrun 100 Club
213Lesley-Ann DONNELL26:42SW30-3455.43 %F53Hyde Park HarriersPB stays at 00:24:39119Member of the parkrun 100 Club
214Emma EWINS26:43SW25-2955.40 %F54PB stays at 00:24:0315
215Andrea BARRAS26:44VW65-6980.61 %F55PB stays at 00:25:57190Member of the parkrun 100 Club
216Chris WORFOLK26:46SM30-3448.44 %M161PB stays at 00:24:36146Member of the parkrun 100 Club
217Katie JACKSON26:49SW20-2455.19 %F56Get Out Get Active - Uni of LeedsPB stays at 00:23:0220
218Unknown
219Abigail BLOY26:55SW25-2954.98 %F57PB stays at 00:24:4923Strava logo
220David BARRAS26:57VM70-7465.43 %M163Leeds City ACPB stays at 00:23:35222Member of the parkrun 100 Club
221Claire WHITE-MCKAY27:00SW25-2954.81 %F58First Timer!28
222Miriam SYKES27:05SW25-2954.65 %F59New PB!13
223Ewen BARCLAY27:05JM15-1751.38 %M164New PB!21Member of the parkrun 10 Club
224Graham WOOD27:06VM50-5456.21 %M165PB stays at 00:24:4029Strava logo
225Sheila FENNELLY27:08VW55-5967.63 %F60PB stays at 00:25:23215Member of the parkrun 100 Club
226Neil WOODALL27:10VM35-3949.51 %M166First Timer!2
227Tim HALTON27:11SM30-3447.82 %M167PB stays at 00:24:39107Member of the parkrun 100 Club
228Unknown
229James BOOTH27:16SM30-3448.11 %M169Hyde Park HarriersPB stays at 00:18:59130Member of the parkrun 100 Club
230Abigail FAIRBAIRN27:18SW25-2954.21 %F61Horsforth HarriersPB stays at 00:24:285
231Lizzie COOMBES27:19VW50-5462.11 %F62Hyde Park HarriersPB stays at 00:26:1566Member of the parkrun 50 ClubStrava logo
232Unknown
233Chris BRACCHI27:26VM50-5455.53 %M171Hyde Park HarriersPB stays at 00:25:5548Strava logo
234Adam GRAINGER27:28VM45-4952.43 %M172First Timer!9
235Joseph TAPPER27:29JM15-1749.85 %M173PB stays at 00:24:4237Member of the parkrun 10 Club
236Naomi FARRAR27:30SW25-2953.82 %F63Hyde Park HarriersPB stays at 00:23:5364Member of the parkrun 50 ClubStrava logo
237Enda MUNNELLY27:31VM40-4450.33 %M174PB stays at 00:25:2642
238Bethany MOREMAN27:31SW25-2953.79 %F64New PB!8
239Denise VAN HERWIJNEN27:32SW20-2453.75 %F65New PB!2
240Claudia BAUER27:33SW30-3453.84 %F66Hyde Park HarriersPB stays at 00:24:57145Member of the parkrun 100 ClubStrava logo
241Kristina PLA27:33SW30-3453.84 %F67PB stays at 00:26:1776Member of the parkrun 50 Club
242Paul WHITMAN27:34VM40-4451.03 %M175PB stays at 00:25:3050Member of the parkrun 50 Club
243Sam HUANG27:34VM40-4449.52 %M176PB stays at 00:26:0318
244Emma JOHNSON27:35JW15-1755.47 %F68PB stays at 00:24:1639Member of the parkrun 10 ClubStrava logo
245Unknown
246Unknown
247Unknown
248Paul SPANDLER27:46VM50-5454.44 %M180PB stays at 00:25:4142
249Georgina HENRY27:47SW20-2453.27 %F69New PB!11
250Natalie KER WATSON27:49VW35-3954.10 %F70First Timer!207Member of the parkrun 100 Club
251David Anthony BIRKBY27:53VM55-5956.55 %M181PB stays at 00:23:49397Member of the parkrun 250 Club
252Unknown
253Unknown
254Hayley GALVIN27:57SW30-3453.31 %F71First Timer!14
255Jude SIMPKINS27:58VW50-5463.05 %F72PB stays at 00:24:56115Member of the parkrun 100 Club
256Ben FOWLER27:59VM60-6457.83 %M184PB stays at 00:25:5879Member of the parkrun 50 Club
257Jane FONTANA28:00VW50-5460.60 %F73Valley Striders ACPB stays at 00:27:0116
258Helen NUNN28:01VW35-3953.54 %F74PB stays at 00:23:4453Member of the parkrun 50 Club
259Aidan MCKAY28:02VM40-4448.69 %M185PB stays at 00:25:1039
260Leann SYKES-HOOBAN28:02VW35-3953.98 %F75New PB!70Member of the parkrun 50 Club
261Adalberto ARRIGONI28:03VM35-3947.00 %M186New PB!4
262Hannah NEWMAN28:06SW30-3452.79 %F76Kirkstall HarriersPB stays at 00:26:4784Member of the parkrun 50 ClubStrava logo
263Unknown
264Joanne LUNDGREN28:08SW25-2952.61 %F77PB stays at 00:27:1036
265Ian STEWART28:09VM50-5453.70 %M188First Timer!51Member of the parkrun 50 ClubStrava logo
266Staisha BALE28:09SW20-2452.58 %F78PB stays at 00:27:437
267Mike WEBB28:10VM40-4449.59 %M189Hyde Park HarriersPB stays at 00:21:55156Member of the parkrun 100 ClubStrava logo
268Richard PULLAN28:11VM55-5956.42 %M190Hyde Park HarriersPB stays at 00:21:00181Member of the parkrun 100 Club
269Emma AMOR28:12SW25-2952.48 %F79Hyde Park HarriersPB stays at 00:23:5481Member of the parkrun 50 ClubStrava logo
270Alex JOHNSTON28:12SM25-2945.80 %M191PB stays at 00:24:5226
271Kate SUMMERS28:13SW20-2452.45 %F80University of Wales Aberystwyth HarriersPB stays at 00:27:3888Member of the parkrun 50 Club
272Timothy GAINES28:14SM30-3446.22 %M192Bramley BreezersNew PB!34Strava logo
273Rachel JAGO28:15SW20-2452.39 %F81PB stays at 00:27:4511
274Katie ROBINSON28:16VW65-6976.24 %F82PB stays at 00:23:19145Member of the parkrun 100 Club
275Emily EDMONDS28:17SW20-2452.33 %F83New PB!18
276Alison OLDFIELD28:19VW45-4957.80 %F84PB stays at 00:27:3950Member of the parkrun 50 Club
277John PAPWORTH-SMITH28:19VM65-6959.80 %M193PB stays at 00:27:3176Member of the parkrun 50 Club
278Freya LEIF28:21SW20-2452.20 %F85PB stays at 00:26:5512Strava logo
279Gary HUTCHINSON28:22VM45-4950.76 %M194PB stays at 00:27:3172Member of the parkrun 50 Club
280Anna CLARK28:23SW20-2452.14 %F86New PB!2
281Daniel MCGARRY28:24SM25-2945.48 %M195PB stays at 00:28:094
282Unknown
283Sophie ROBINSON28:30SW20-2451.93 %F87New PB!19
284Amy CROOK28:32SW20-2451.87 %F88New PB!5
285Unknown
286Nicky CARROLL28:39SW25-2951.66 %F89First Timer!1
287Nicki DERRICK28:42SW25-2951.57 %F90PB stays at 00:26:1355Member of the parkrun 50 Club
288Jamie RYAN28:43SM20-2444.92 %M198PB stays at 00:19:5090Member of the parkrun 50 ClubStrava logo
289John STEENSON28:44VM55-5954.41 %M199PB stays at 00:26:1047
290Alison PULLAN28:46SW25-2951.45 %F91Hyde Park HarriersPB stays at 00:24:2831Strava logo
291Grace WHYMAN28:47SW20-2451.42 %F92Hyde Park HarriersPB stays at 00:27:2268Member of the parkrun 50 ClubStrava logo
292Joanne TAYLOR28:51SW30-3451.30 %F93PB stays at 00:27:2511
293Ivana DODOKOVA28:52VW35-3951.79 %F94First Timer!1
294Fabien BAUGARD28:53VM45-4949.86 %M200PB stays at 00:26:02107Member of the parkrun 100 Club
295Claire LOCK28:55SW25-2951.18 %F95PB stays at 00:28:216
296Christopher GRAHAM28:56SM30-3445.33 %M201First Timer!1
297Dominique SCOLES28:57SW20-2451.12 %F96New PB!24Strava logo
298Alison HARGREAVES28:59VW35-3951.75 %F97Hyde Park HarriersPB stays at 00:28:0513
299Claire BROWNE29:04VW40-4453.73 %F98PB stays at 00:27:4923
300Julie KYAW-TUN29:05VW35-3952.03 %F99PB stays at 00:28:2874Member of the parkrun 50 Club
301Benjamin FOJUT29:06SM25-2944.33 %M202PB stays at 00:23:144
302Angelica FLOREZ29:06SW25-2950.86 %F100New PB!2
303Kate SOLOMON29:07SW20-2450.83 %F101PB stays at 00:26:1636
304Joseph BELL29:09SM20-2444.25 %M203New PB!8
305Adrian BELL29:10VM45-4949.77 %M204New PB!10
306Campbell MCNEILL29:12VM50-5450.51 %M205PB stays at 00:25:3140
307Unknown
308Ash HEWITT-WOOD29:13SM30-3444.89 %M207Roundhay RunnersFirst Timer!54Member of the parkrun 50 Club
309Terence Michael BALDWINSON29:15VM75-7968.66 %M208PB stays at 00:28:1785Member of the parkrun 50 ClubStrava logo
310Laura GARRATT29:16VW35-3951.25 %F102PB stays at 00:28:2416
311Barrie HOPSON29:19VM70-7463.56 %M209Abbey Runners LeedsPB stays at 00:27:17141Member of the parkrun 100 Club
312Emma WILSON29:20SW25-2950.45 %F103New PB!6
313Unknown
314Loreto ALIAGA29:22VW35-3950.91 %F104PB stays at 00:28:3616
315Jane OUGHTON29:24VW55-5963.27 %F105Abbey Runners LeedsPB stays at 00:27:16129Member of the parkrun 100 Club
316Nicola WOMACK29:24VW40-4452.32 %F106Dewsbury Road RunnersFirst Timer!8Strava logo
317Ian EMBERTON29:25VM50-5450.54 %M211Valley Striders ACPB stays at 00:25:3535
318Matthew ROYLE29:25SM20-2443.85 %M212PB stays at 00:27:2523
319Claire HOUGHAM29:26VW40-4451.98 %F107Hyde Park HarriersPB stays at 00:28:05158Member of the parkrun 100 ClubStrava logo
320Unknown
321Roger V WILSON29:27VM70-7462.31 %M214Abbey Runners LeedsPB stays at 00:26:1951Member of the parkrun 50 Club
322Toby TENNANT29:33SM25-2943.65 %M215PB stays at 00:28:3911Strava logo
323Jack ROUTLEDGE29:33SM20-2443.82 %M216PB stays at 00:29:0022
324Stephen O'HARA29:34VM65-6958.96 %M217Horsforth HarriersPB stays at 00:22:45401Member of the parkrun 250 Club
325Kristan WEBB29:41VW50-5457.89 %F108Wrangthorn Church RunnersPB stays at 00:27:03120Member of the parkrun 100 Club
326Luke GREEN29:52SM20-2443.19 %M218PB stays at 00:29:514
327Miranda SEED29:53VW35-3950.36 %F109PB stays at 00:29:157
328Unknown
329Oliver PEARSON29:54SM25-2943.14 %M220New PB!6
330Unknown
331Zuzanna LATOSZEK29:57SW25-2949.42 %F110New PB!3
332Andrew BENNETT29:58VM60-6455.45 %M222PB stays at 00:25:21118Member of the parkrun 100 Club
333Lucy KEAR29:59VW50-5455.92 %F111PB stays at 00:28:5646
334Caroline TOLAN30:00VW45-4954.00 %F112Valley Striders ACPB stays at 00:25:2166Member of the parkrun 50 Club
335Anna HOLLIS30:01SW20-2449.31 %F113New PB!4
336Unknown
337Caroline Louise JOHNSON30:05VW45-4954.40 %F114PB stays at 00:28:2812
338Sharron ROONEY30:10VW50-5455.58 %F115First Timer!80Member of the parkrun 50 ClubStrava logo
339David SHINDLER30:14VM55-5952.59 %M224Chapel Allerton RunnersPB stays at 00:28:269
340Nicole WOODWARD30:15SW30-3448.98 %F116PB stays at 00:29:2529
341Donna EDMONDSON30:17VW45-4953.49 %F117Otley ACFirst Timer!1
342Alison OVEREND30:19VW35-3949.31 %F118PB stays at 00:29:4535
343Barney TINSLEY30:25VM40-4445.53 %M225PB stays at 00:29:149
344Georgia MYERSON30:28SW20-2448.58 %F119First Timer!1
345Bradley LANDER30:29VM65-6956.59 %M226First Timer!1
346Thomas CROWTHER30:33VM80-8468.79 %M227Airienteers Orienteering ClubPB stays at 00:28:40108Member of the parkrun 100 Club
347Unknown
348Amar BHATTI30:37VM45-4947.41 %M229Virgin Active Road RunnersPB stays at 00:27:27144Member of the parkrun 100 Club
349Mark BRODDLE30:38VM40-4445.59 %M230Horsforth HarriersPB stays at 00:28:4541
350Unknown
351Anne AKERS30:41VW55-5961.49 %F120Kirkstall HarriersPB stays at 00:28:10242Member of the parkrun 100 Club
352Unknown
353Lorraine BEAVIS30:48VW60-6463.91 %F121Hyde Park HarriersPB stays at 00:29:37163Member of the parkrun 100 ClubStrava logo
354Lisa GYE30:50VW45-4952.54 %F122PB stays at 00:30:0729
355Amanda Jane BIRKBY30:52VW50-5454.97 %F123PB stays at 00:26:32395Member of the parkrun 250 Club
356Victoria BRIDES30:57SW30-3447.93 %F124Horsforth HarriersPB stays at 00:26:55136Member of the parkrun 100 Club
357Unknown
358Diane BELL31:00VW55-5960.86 %F125PB stays at 00:29:5841
359Sarah BELT31:01SW30-3447.72 %F126PB stays at 00:30:5015
360Unknown
361Daniel DINSDALE-GREEN31:09SM25-2941.47 %M235PB stays at 00:25:224
362Unknown
363Anish KUNDU31:16SM20-2441.26 %M237New PB!17
364Claire BOOTH31:18SW30-3447.39 %F127Hyde Park HarriersPB stays at 00:21:11113Member of the parkrun 100 Club
365Joanne WATERHOUSE31:24VW35-3948.20 %F128New PB!2
366Romina MASOOD31:27SW20-2447.06 %F129First Timer!1
367James SUTCLIFFE31:27SM20-2441.02 %M238First Timer!1
368Sean WRIGHT31:37VM35-3942.54 %M239PB stays at 00:27:043
369Hanna GUL ONGUN31:41SW30-3446.82 %F130Hyde Park HarriersPB stays at 00:29:1522
370Unknown
371Unknown
372Andy EAVES31:47VM50-5447.56 %M242PB stays at 00:30:093
373Unknown
374Joseph ALLEN31:54JM1053.34 %M244New PB!9
375Julia ALLEN31:57VW45-4951.23 %F131New PB!6
376Anna TONER31:57SW30-3446.32 %F132PB stays at 00:30:207
377Louise GARDHAM31:59VW45-4950.65 %F133New PB!14Strava logo
378Steve BROWN32:01VM50-5446.43 %M245Hyde Park HarriersPB stays at 00:27:3987Member of the parkrun 50 Club
379Helen LEECH32:09VW45-4949.87 %F134Pudsey Pacers RCPB stays at 00:29:1637
380Sarah GOODMAN32:11SW30-3446.30 %F135New PB!3
381Kate KELLY32:19VW50-5453.89 %F136First Timer!96Member of the parkrun 50 Club
382Laura CUTHBERT32:26SW30-3445.63 %F137PB stays at 00:29:4085Member of the parkrun 50 Club
383John N CUTHBERT32:27VM60-6450.28 %M246PB stays at 00:28:36103Member of the parkrun 100 Club
384Unknown
385Ying-Hsien WU32:34SW25-2945.45 %F138Leeds University Union Hiking ClubPB stays at 00:32:196
386Jessica MCGRAGHAN32:38SW20-2445.35 %F139PB stays at 00:29:2185Member of the parkrun 50 ClubStrava logo
387Will PATTERSON32:43VM65-6951.25 %M248Airienteers Orienteering ClubPB stays at 00:28:547
388Robyn JOHNSON32:44SW30-3445.26 %F140Hyde Park HarriersPB stays at 00:29:4881Member of the parkrun 50 ClubStrava logo
389Bina BHABRA32:57SW30-3445.22 %F141First Timer!1
390Caroline SANDERS32:58VW40-4447.02 %F142Hyde Park HarriersPB stays at 00:25:25142Member of the parkrun 100 Club
391Peter SCANLON32:58VM70-7454.15 %M249Horsforth HarriersPB stays at 00:27:07219Member of the parkrun 100 Club
392Unknown
393Eve GOFF33:04JW11-1448.29 %F143PB stays at 00:29:3429Member of the parkrun 10 Club
394Jayne GLENNON33:11VW50-5450.53 %F144PB stays at 00:28:53124Member of the parkrun 100 Club
395Andy BEST33:12VM50-5444.78 %M251PB stays at 00:24:36141Member of the parkrun 100 Club
396Michelle HARRISON33:12VW45-4949.90 %F145PB stays at 00:30:5643
397Christina OULTON33:21SW25-2944.38 %F146First Timer!2
398Jin ZHAO33:22SW25-2944.36 %F147PB stays at 00:31:1623
399Julia DIXON33:22VW35-3944.81 %F148PB stays at 00:33:0541
400Pip GOFF33:34VW50-5450.55 %F149PB stays at 00:31:3930
401Cath BENSON33:39VW45-4948.64 %F150New PB!9
402Amber BOLTON33:43SW20-2443.90 %F151New PB!2
403Sharron NEUGEBAUER33:49VW55-5952.83 %F152Hyde Park HarriersPB stays at 00:31:05220Member of the parkrun 100 Club
404Samantha WHITAKER33:49VW50-5450.17 %F153Hyde Park HarriersPB stays at 00:21:08145Member of the parkrun 100 Club
405Katayoon NAIMIAN33:50VW35-3944.48 %F154New PB!5
406Ben TODD33:52SM25-2938.09 %M252PB stays at 00:25:2814Strava logo
407Unknown
408Julie KELLY34:04VW55-5954.60 %F155New PB!10
409Connie LO34:08VW40-4445.07 %F156PB stays at 00:33:5410
410Michaela MOLYNEAUX34:11VW40-4445.34 %F157Billericay Striders RCFirst Timer!47
411Joshua MATTHEWS34:30SM25-2937.39 %M254PB stays at 00:31:3536
412Heather SLIM34:35SW30-3442.89 %F158PB stays at 00:30:0453Member of the parkrun 50 Club
413Vicky SCROGGINS34:38SW30-3443.02 %F159Oakwell Running Bears.New PB!58Member of the parkrun 50 ClubStrava logo
414Clare MASON34:40VW45-4947.21 %F160Hyde Park HarriersPB stays at 00:28:42274Member of the parkrun 250 ClubStrava logo
415Joanne SCANTLEBURY34:42VW50-5448.90 %F161Leeds & Bradford Triathlon ClubPB stays at 00:28:22322Member of the parkrun 250 Club
416Sue ROBINSON34:43VW60-6455.88 %F162Morley Running ClubNew PB!27
417Olivia ROSS34:45SW18-1942.73 %F163PB stays at 00:33:4715
418Unknown
419George KIDD35:10JM1048.39 %M256New PB!5
420David SERUWAGI35:13VM50-5441.88 %M257PB stays at 00:30:2120
421Jane KIDD35:14VW40-4444.32 %F164PB stays at 00:28:155
422Liz JONES35:17VW55-5952.72 %F165Hyde Park HarriersPB stays at 00:28:56371Member of the parkrun 250 Club
423Helen BRIMACOMBE35:24VW35-3942.37 %F166First Timer!1
424Charlotte SMART35:24VW35-3942.37 %F167First Timer!1
425Hannah THORNTON35:29JW15-1743.12 %F168PB stays at 00:34:1132Member of the parkrun 10 Club
426Nikki BHAKTA35:43SW25-2941.44 %F169PB stays at 00:32:527
427Henry KIDD35:53JM1052.11 %M258New PB!5
428Bryan KIDD35:53VM40-4438.04 %M259PB stays at 00:23:316
429Emma CHALLINOR35:54SW30-3441.23 %F170PB stays at 00:25:5810
430Susan SMITH35:55VW55-5951.79 %F171Hyde Park HarriersPB stays at 00:28:27205Member of the parkrun 100 ClubStrava logo
431Leean MORROW36:44VW45-4944.56 %F172PB stays at 00:33:263
432Isla KENYON36:45SW18-1940.41 %F173New PB!2
433Trevor STENT36:54VM65-6946.30 %M260PB stays at 00:32:0557Member of the parkrun 50 Club
434Linda EAVES36:57VW50-5445.38 %F174New PB!3
435Aimee FEETHAM36:58SW18-1940.17 %F175New PB!2
436Anne CEESAY37:02VW45-4942.89 %F176First Timer!5
437Suzy ROUNCE37:10VW35-3940.49 %F177First Timer!1
438Marc WOOLFSON37:12VM35-3935.66 %M261First Timer!1
439Tom FALLER38:40SM30-3433.45 %M262PB stays at 00:33:2712
440Unknown
441Unknown
442Unknown
443George WEBSTER39:34JM15-1734.12 %M266PB stays at 00:34:3837Member of the parkrun 10 Club
444James HALL39:35SM30-3432.67 %M267First Timer!1
445Sam DOOLEY39:36VM55-5939.14 %M268Hyde Park HarriersPB stays at 00:18:38190Member of the parkrun 100 Club
446Diane AYKROYD39:42VW65-6955.16 %F178Hyde Park HarriersPB stays at 00:31:37362Member of the parkrun 250 Club
447Sarah DENNISON39:53JW1048.98 %F179Mini Mermaid Running Club UKFirst Timer!6
448Warren DENNISON39:54VM50-5437.26 %M269ParkrunnerPBPB stays at 00:25:1535Strava logo
449Unknown
450Oscar BELL40:40JM1038.81 %M271PB stays at 00:37:127
451Natalie BELL40:42VW40-4438.66 %F180PB stays at 00:31:2024
452Sonja WOOD41:25VW40-4436.94 %F181PB stays at 00:39:004
453Holly CALENO41:45SW25-2935.45 %F182PB stays at 00:35:1314
454Rommi SMITH42:17VW40-4437.21 %F183PB stays at 00:40:2514
455Poppy JOHNSON43:54SW20-2433.71 %F184First Timer!1
456Lorna COURTNEY45:40SW30-3432.45 %F185PB stays at 00:42:497Strava logo
457Tessita BURNELL45:53VW55-5939.45 %F186PB stays at 00:42:4525
458Christina EDWARDS47:24VW35-3931.54 %F187Hyde Park HarriersPB stays at 00:35:12108Member of the parkrun 100 Club
459Julie ROYLE-EVATT47:24VW45-4933.51 %F188PB stays at 00:39:3274Member of the parkrun 50 Club
460Alena MELCHANKA47:47SW30-3431.04 %F189PB stays at 00:31:2114
461Liam EDWARDS48:27JM1035.12 %M272PB stays at 00:39:2944Member of the parkrun 10 Club
462Nick BROWN48:28SM20-2426.62 %M273PB stays at 00:27:3639
463Mark THORNTON49:08VM50-5430.26 %M274PB stays at 00:31:3772Member of the parkrun 50 ClubStrava logo
464Poppy FORWOOD57:32JW1035.49 %F190Hyde Park HarriersPB stays at 00:41:2336Member of the parkrun 10 Club
465Nicola FORWOOD57:55SW30-3425.73 %F191Hyde Park HarriersPB stays at 00:23:24408Member of the parkrun 250 Club
466Jasbir BANGERH58:03VW45-4928.19 %F192Hyde Park HarriersPB stays at 00:28:16411Member of the parkrun 250 ClubStrava logo

Thanks to the volunteers

We are very grateful to the volunteers who made this event happen:Anne AKERS, Jasbir BANGERH, Claudia BAUER, Zeni BELLWOOD, Hadar BEN-ARZI, Louise BISSET, Jane-Marie BRACCHI, Nicholas James BRADY, Debbie BROWN, Sasha CULPIN, Laura CUNLIFFE, Chris CUNLIFFE, Sam DOOLEY, Christina EDWARDS, Joe GARNER, Phil HAMMOND, Salah HASSAN, Claire HOUGHAM, Sue LUMBY, Clare MAXWELL, Pritti MEHTA, Zoe MOLES, Howard NAYLOR, Abbie NAYLOR, Benjamin NAYLOR, Rolf NEUGEBAUER, Maika OHNO, Caroline SANDERS, Erin SCULLION, Gerry SUTCLIFFE, Ai Lyn TAN, Danny WILKINS, Francesca WILLIAMS

Why not get involved and volunteer?

What is this table?

This table shows the complete results for the specified week at this event. It is automatically shown when you navigate to the results page, but can also be reached by clicking on Latest Results, or by picking a specific week from the Event History table. If you bookmark the Latest Results page in your browser, the bookmark will always take you to the most up to date results table. If you bookmark a results page reached via the Event History table, the bookmark will then always take you to that specific week's results.

The columns

  • Pos - the runner's overall position in the run.
  • parkrunner - is the registered name of the athlete; clicking on the name takes you to that athlete's results page for this event.
  • Time - is the runner's recorded time - we record the overall time between the run director's start instruction and the runner crossing the finish line.
  • Age Cat - represents the age category of the runner on the day of the run; the first letter represents the major age categories (J)unior, (S)enior and (Veteran); the second letter represents gender (M)en and (W)omen; the remainder of the category represents a more specific age range. There are two further categories for wheel chair users; WWC and MWC represent Women and Men respectively. Clicking on the result category takes you to that age categories' historical record for this event.
  • Age Grade
  • - Gives an indication of how well the runner has done relative to their age and gender see the FAQ article for more information.
  • Gender - (M)ale or (F)emale
  • Gender Pos- Gender finish positions.
  • Club - Running club if registered.
  • Note - Note - Comments about PBs (Personal Bests).
  • Total Runs - Total number of runs across all parkruns, an indicator of membership of the various parkrun clubs, and their links with partner websites.

As with any of the results tables, the table can be sorted by any column by clicking on the column heading.